createdAt,value
2024-04-30T00:00:39.118Z,2.10
2024-04-30T00:03:07.453Z,1.83
2024-04-30T00:05:34.844Z,4.85
2024-04-30T00:08:02.158Z,2.50
2024-04-30T00:10:29.563Z,3.75
2024-04-30T00:12:56.926Z,2.63
2024-04-30T00:15:24.215Z,2.10
2024-04-30T00:17:51.642Z,3.60
2024-04-30T00:20:18.958Z,3.78
2024-04-30T00:22:46.286Z,2.17
2024-04-30T00:25:13.553Z,2.83
2024-04-30T00:27:42.603Z,1.60
2024-04-30T00:30:10.697Z,2.67
2024-04-30T00:32:38.069Z,4.38
2024-04-30T00:35:05.568Z,1.60
2024-04-30T00:37:32.859Z,2.10
2024-04-30T00:40:00.327Z,2.08
2024-04-30T00:42:27.724Z,3.65
2024-04-30T00:44:54.991Z,2.97
2024-04-30T00:47:22.895Z,3.28
2024-04-30T00:49:50.630Z,2.60
2024-04-30T00:52:17.963Z,3.33
2024-04-30T00:54:45.384Z,1.48
2024-04-30T00:57:12.679Z,6.15
2024-04-30T00:59:40.912Z,6.75
2024-04-30T01:02:08.284Z,1.95
2024-04-30T01:04:35.739Z,5.40
2024-04-30T01:07:03.058Z,3.20
2024-04-30T01:09:30.386Z,4.28
2024-04-30T01:11:58.291Z,4.03
2024-04-30T01:14:25.607Z,3.72
2024-04-30T01:16:52.900Z,2.58
2024-04-30T01:19:20.188Z,4.82
2024-04-30T01:21:47.574Z,3.15
2024-04-30T01:24:14.857Z,2.50
2024-04-30T01:26:42.108Z,2.55
2024-04-30T01:29:09.380Z,2.28
2024-04-30T01:31:36.679Z,2.05
2024-04-30T01:34:04.029Z,3.53
2024-04-30T01:36:31.312Z,2.38
2024-04-30T01:38:58.664Z,5.35
2024-04-30T01:41:25.922Z,2.05
2024-04-30T01:43:53.986Z,2.60
2024-04-30T01:46:21.429Z,3.90
2024-04-30T01:48:48.783Z,3.53
2024-04-30T01:51:16.083Z,2.60
2024-04-30T01:53:46.477Z,2.58
2024-04-30T01:56:13.768Z,4.32
2024-04-30T01:58:41.110Z,2.90
2024-04-30T02:01:08.521Z,2.78
2024-04-30T02:03:35.963Z,3.40
2024-04-30T02:06:03.283Z,3.30
2024-04-30T02:08:30.640Z,2.67
2024-04-30T02:10:57.909Z,4.15
2024-04-30T02:13:25.252Z,3.03
2024-04-30T02:15:52.540Z,1.83
2024-04-30T02:18:19.917Z,4.88
2024-04-30T02:20:47.174Z,4.22
2024-04-30T02:23:14.570Z,3.13
2024-04-30T02:25:41.829Z,2.38
2024-04-30T02:28:09.108Z,4.32
2024-04-30T02:30:55.344Z,4.50
2024-04-30T02:33:41.256Z,2.08
2024-04-30T02:36:11.409Z,7.95
2024-04-30T02:38:38.696Z,4.18
2024-04-30T02:41:07.852Z,3.75
2024-04-30T02:43:35.264Z,5.45
2024-04-30T02:46:02.685Z,6.20
2024-04-30T02:48:29.995Z,6.05
2024-04-30T02:50:57.383Z,5.10
2024-04-30T02:53:24.632Z,3.97
2024-04-30T02:55:51.895Z,5.00
2024-04-30T02:58:19.170Z,3.33
2024-04-30T03:00:46.560Z,7.68
2024-04-30T03:03:13.833Z,4.85
2024-04-30T03:05:41.098Z,4.88
2024-04-30T03:08:08.490Z,5.47
2024-04-30T03:10:35.898Z,7.53
2024-04-30T03:13:03.310Z,3.35
2024-04-30T03:15:30.624Z,5.97
2024-04-30T03:17:58.305Z,3.38
2024-04-30T03:20:25.616Z,4.60
2024-04-30T03:22:52.872Z,5.78
2024-04-30T03:25:20.189Z,6.53
2024-04-30T03:27:47.464Z,5.63
2024-04-30T03:30:14.763Z,26.27
2024-04-30T03:32:42.731Z,33.33
2024-04-30T03:35:10.137Z,18.38
2024-04-30T03:37:37.394Z,4.95
2024-04-30T03:40:04.911Z,12.32
2024-04-30T03:42:32.236Z,10.00
2024-04-30T03:44:59.527Z,12.55
2024-04-30T03:47:26.875Z,11.38
2024-04-30T03:49:54.147Z,11.30
2024-04-30T03:52:21.459Z,6.40
2024-04-30T03:54:48.786Z,5.32
2024-04-30T03:57:16.041Z,5.80
2024-04-30T03:59:43.297Z,7.47
2024-04-30T04:02:10.622Z,12.80
2024-04-30T04:04:38.200Z,6.80
2024-04-30T04:07:05.680Z,4.90
2024-04-30T04:09:32.920Z,4.45
2024-04-30T04:12:18.730Z,5.70
2024-04-30T04:14:50.181Z,9.50
2024-04-30T04:17:18.190Z,4.82
2024-04-30T04:19:46.487Z,5.70
2024-04-30T04:22:13.925Z,3.58
2024-04-30T04:24:41.282Z,4.53
2024-04-30T04:27:08.702Z,3.25
2024-04-30T04:29:36.046Z,5.35
2024-04-30T04:32:03.555Z,8.32
2024-04-30T04:34:30.905Z,3.95
2024-04-30T04:36:58.253Z,2.70
2024-04-30T04:39:25.598Z,3.65
2024-04-30T04:41:52.858Z,6.70
2024-04-30T04:44:20.101Z,8.82
2024-04-30T04:46:47.446Z,5.22
2024-04-30T04:49:14.732Z,3.90
2024-04-30T04:51:41.992Z,3.83
2024-04-30T04:54:09.234Z,4.03
2024-04-30T04:56:36.520Z,4.28
2024-04-30T04:59:03.961Z,5.53
2024-04-30T05:01:31.235Z,3.67
2024-04-30T05:03:58.666Z,3.47
2024-04-30T05:06:25.897Z,4.60
2024-04-30T05:08:53.169Z,4.90
2024-04-30T05:11:20.462Z,6.68
2024-04-30T05:13:47.752Z,6.75
2024-04-30T05:16:15.067Z,4.18
2024-04-30T05:18:42.414Z,8.00
2024-04-30T05:21:09.744Z,4.40
2024-04-30T05:23:37.026Z,8.80
2024-04-30T05:26:04.387Z,6.50
2024-04-30T05:28:31.767Z,8.90
2024-04-30T05:30:59.035Z,4.80
2024-04-30T05:33:28.715Z,4.90
2024-04-30T05:35:56.232Z,6.28
2024-04-30T05:38:23.456Z,16.50
2024-04-30T05:40:50.730Z,10.52
2024-04-30T05:43:19.621Z,10.73
2024-04-30T05:45:47.002Z,12.93
2024-04-30T05:48:14.269Z,3.08
2024-04-30T05:50:41.569Z,5.43
2024-04-30T05:53:09.683Z,4.15
2024-04-30T05:55:37.091Z,3.05
2024-04-30T05:58:04.665Z,5.43
2024-04-30T06:00:32.061Z,5.70
2024-04-30T06:03:02.647Z,3.58
2024-04-30T06:05:31.207Z,3.70
2024-04-30T06:07:58.602Z,7.95
2024-04-30T06:10:25.871Z,3.17
2024-04-30T06:12:53.152Z,1.95
2024-04-30T06:15:20.486Z,4.68
2024-04-30T06:17:47.790Z,4.20
2024-04-30T06:20:15.112Z,6.50
2024-04-30T06:22:42.424Z,4.88
2024-04-30T06:25:09.701Z,8.77
2024-04-30T06:27:36.952Z,7.90
2024-04-30T06:30:04.314Z,9.35
2024-04-30T06:32:31.581Z,4.93
2024-04-30T06:34:58.951Z,6.32
2024-04-30T06:37:26.252Z,3.88
2024-04-30T06:39:53.572Z,4.60
2024-04-30T06:42:20.910Z,3.22
2024-04-30T06:44:48.204Z,5.88
2024-04-30T06:47:15.477Z,4.43
2024-04-30T06:49:42.763Z,5.47
2024-04-30T06:52:10.057Z,3.85
2024-04-30T06:54:37.474Z,5.82
2024-04-30T06:57:04.930Z,2.95
2024-04-30T06:59:32.326Z,3.72
2024-04-30T07:01:59.682Z,10.38
2024-04-30T07:04:26.985Z,4.38
2024-04-30T07:06:54.303Z,4.88
2024-04-30T07:09:21.606Z,6.28
2024-04-30T07:11:48.934Z,4.05
2024-04-30T07:14:16.167Z,5.38
2024-04-30T07:16:51.809Z,7.45
2024-04-30T07:19:24.074Z,4.78
2024-04-30T07:21:51.359Z,4.47
2024-04-30T07:24:18.617Z,3.88
2024-04-30T07:26:45.832Z,5.28
2024-04-30T07:29:13.354Z,5.20
2024-04-30T07:31:58.344Z,5.55
2024-04-30T07:34:25.956Z,3.97
2024-04-30T07:36:53.227Z,4.93
2024-04-30T07:39:20.488Z,4.75
2024-04-30T07:41:47.723Z,5.45
2024-04-30T07:44:14.984Z,7.45
2024-04-30T07:46:42.326Z,6.32
2024-04-30T07:49:09.705Z,4.82
2024-04-30T07:51:36.951Z,6.18
2024-04-30T07:54:04.239Z,3.15
2024-04-30T07:56:31.527Z,7.80
2024-04-30T07:58:58.764Z,4.82
2024-04-30T08:01:26.016Z,4.45
2024-04-30T08:03:53.319Z,6.13
2024-04-30T08:06:22.139Z,2.55
2024-04-30T08:08:49.417Z,6.40
2024-04-30T08:11:16.754Z,6.72
2024-04-30T08:13:45.272Z,4.88
2024-04-30T08:16:12.894Z,8.35
2024-04-30T08:18:40.202Z,4.75
2024-04-30T08:21:08.462Z,5.03
2024-04-30T08:23:35.821Z,2.05
2024-04-30T08:26:03.122Z,5.35
2024-04-30T08:28:30.444Z,6.45
2024-04-30T08:30:58.186Z,4.60
2024-04-30T08:33:25.950Z,4.80
2024-04-30T08:35:53.224Z,7.25
2024-04-30T08:38:20.588Z,9.88
2024-04-30T08:40:47.894Z,8.50
2024-04-30T08:43:16.257Z,13.40
2024-04-30T08:45:44.057Z,12.60
2024-04-30T08:48:12.910Z,7.25
2024-04-30T08:53:09.967Z,6.03
2024-04-30T08:55:38.496Z,5.28
2024-04-30T08:58:05.842Z,8.05
2024-04-30T09:00:33.274Z,4.80
2024-04-30T09:03:03.268Z,4.38
2024-04-30T09:05:32.647Z,8.73
2024-04-30T09:08:02.900Z,5.05
2024-04-30T09:10:30.719Z,9.20
2024-04-30T09:12:58.687Z,6.65
2024-04-30T09:15:26.467Z,7.70
2024-04-30T09:17:54.680Z,7.53
2024-04-30T09:20:21.983Z,10.48
2024-04-30T09:22:52.675Z,6.82
2024-04-30T09:25:40.351Z,5.38
2024-04-30T09:28:14.045Z,9.82
2024-04-30T09:30:41.590Z,15.35
2024-04-30T09:33:10.274Z,7.55
2024-04-30T09:35:37.766Z,9.57
2024-04-30T09:38:08.486Z,5.70
2024-04-30T09:40:37.090Z,12.15
2024-04-30T09:43:05.013Z,6.13
2024-04-30T09:45:32.509Z,13.25
2024-04-30T09:48:02.110Z,8.27
2024-04-30T09:50:30.610Z,9.63
2024-04-30T09:52:58.731Z,6.20
2024-04-30T09:55:27.519Z,6.85
2024-04-30T09:57:55.081Z,7.47
2024-04-30T10:00:25.994Z,15.35
2024-04-30T10:02:58.435Z,14.90
2024-04-30T10:05:29.508Z,15.15
2024-04-30T10:07:57.988Z,12.23
2024-04-30T10:10:29.146Z,12.10
2024-04-30T10:13:07.833Z,15.60
2024-04-30T10:15:35.245Z,10.23
2024-04-30T10:18:02.598Z,10.13
2024-04-30T10:20:31.391Z,11.32
2024-04-30T10:22:58.974Z,14.13
2024-04-30T10:25:26.591Z,14.38
2024-04-30T10:28:10.327Z,12.90
2024-04-30T10:30:38.104Z,10.15
2024-04-30T10:33:05.868Z,13.32
2024-04-30T10:35:43.042Z,11.48
2024-04-30T10:38:10.381Z,11.13
2024-04-30T10:40:38.231Z,9.77
2024-04-30T10:43:05.817Z,18.08
2024-04-30T10:45:33.207Z,9.27
2024-04-30T10:48:00.807Z,13.90
2024-04-30T10:50:29.751Z,10.35
2024-04-30T10:53:00.192Z,14.02
2024-04-30T10:55:27.845Z,21.33
2024-04-30T10:57:55.186Z,17.73
2024-04-30T11:00:22.460Z,14.27
2024-04-30T11:02:56.478Z,12.45
2024-04-30T11:05:24.422Z,13.30
2024-04-30T11:07:55.542Z,17.55
2024-04-30T11:10:26.659Z,15.90
2024-04-30T11:13:08.438Z,13.43
2024-04-30T11:15:35.791Z,15.13
2024-04-30T11:18:03.213Z,16.27
2024-04-30T11:20:30.588Z,8.10
2024-04-30T11:22:57.860Z,18.10
2024-04-30T11:25:25.180Z,14.25
2024-04-30T11:27:52.516Z,11.73
2024-04-30T11:30:19.779Z,17.08
2024-04-30T11:32:47.100Z,18.50
2024-04-30T11:35:14.523Z,14.45
2024-04-30T11:37:42.206Z,14.77
2024-04-30T11:40:11.184Z,15.45
2024-04-30T11:42:44.229Z,11.15
2024-04-30T11:45:15.322Z,15.60
2024-04-30T11:47:42.879Z,20.08
2024-04-30T11:50:10.282Z,18.52
2024-04-30T11:52:40.664Z,17.17
2024-04-30T11:55:08.339Z,19.75
2024-04-30T11:57:37.239Z,10.93
2024-04-30T12:00:05.248Z,16.52
2024-04-30T12:02:32.625Z,15.63
2024-04-30T12:05:00.153Z,15.48
2024-04-30T12:07:27.738Z,15.63
2024-04-30T12:09:54.977Z,15.32
2024-04-30T12:12:22.271Z,9.23
2024-04-30T12:14:49.563Z,9.90
2024-04-30T12:17:17.360Z,19.83
2024-04-30T12:19:44.922Z,11.88
2024-04-30T12:22:12.316Z,15.23
2024-04-30T12:24:40.606Z,16.67
2024-04-30T12:27:07.877Z,13.48
2024-04-30T12:29:35.172Z,18.23
2024-04-30T12:32:02.440Z,14.88
2024-04-30T12:34:29.827Z,23.15
2024-04-30T12:36:57.130Z,10.27
2024-04-30T12:39:24.400Z,13.23
2024-04-30T12:41:51.753Z,13.75
2024-04-30T12:44:19.069Z,12.05
2024-04-30T12:46:47.228Z,10.45
2024-04-30T12:49:14.631Z,16.58
2024-04-30T12:51:42.216Z,12.25
2024-04-30T12:54:09.538Z,12.27
2024-04-30T12:56:36.869Z,17.08
2024-04-30T12:59:05.495Z,12.85
2024-04-30T13:01:32.863Z,7.57
2024-04-30T13:04:00.187Z,14.45
2024-04-30T13:06:27.567Z,14.65
2024-04-30T13:08:55.384Z,14.80
2024-04-30T13:11:22.778Z,17.35
2024-04-30T13:13:50.206Z,13.45
2024-04-30T13:16:17.580Z,16.25
2024-04-30T13:18:44.984Z,11.68
2024-04-30T13:21:15.026Z,23.70
2024-04-30T13:23:42.308Z,22.65
2024-04-30T13:26:09.619Z,16.35
2024-04-30T13:28:37.002Z,13.65
2024-04-30T13:31:04.371Z,22.17
2024-04-30T13:33:31.710Z,20.73
2024-04-30T13:35:59.346Z,19.05
2024-04-30T13:38:26.663Z,21.00
2024-04-30T13:40:54.038Z,20.52
2024-04-30T13:43:21.451Z,15.95
2024-04-30T13:45:49.394Z,13.02
2024-04-30T13:48:16.897Z,17.42
2024-04-30T13:50:44.447Z,12.52
2024-04-30T13:53:11.742Z,18.13
2024-04-30T13:55:39.163Z,20.50
2024-04-30T13:58:06.510Z,20.42
2024-04-30T14:00:34.021Z,24.58
2024-04-30T14:03:01.424Z,25.80
2024-04-30T14:05:28.708Z,21.83
2024-04-30T14:07:56.054Z,17.00
2024-04-30T14:10:23.364Z,15.85
2024-04-30T14:12:50.765Z,20.40
2024-04-30T14:15:18.007Z,21.40
2024-04-30T14:17:45.428Z,24.17
2024-04-30T14:20:12.744Z,21.95
2024-04-30T14:22:42.157Z,26.50
2024-04-30T14:25:09.690Z,28.58
2024-04-30T14:27:37.241Z,18.73
2024-04-30T14:30:04.689Z,27.30
2024-04-30T14:32:32.118Z,23.25
2024-04-30T14:34:59.534Z,27.60
2024-04-30T14:37:26.947Z,19.88
2024-04-30T14:39:55.180Z,20.63
2024-04-30T14:42:23.663Z,23.42
2024-04-30T14:44:52.100Z,20.95
2024-04-30T14:47:23.232Z,17.80
2024-04-30T14:49:50.752Z,20.02
2024-04-30T14:52:18.261Z,22.65
2024-04-30T14:54:46.136Z,17.30
2024-04-30T14:57:13.414Z,16.95
2024-04-30T14:59:40.809Z,18.33
2024-04-30T15:02:08.319Z,17.85
2024-04-30T15:04:37.079Z,17.35
2024-04-30T15:07:04.467Z,14.18
2024-04-30T15:09:34.736Z,22.58
2024-04-30T15:12:02.896Z,18.70
2024-04-30T15:14:30.230Z,16.80
2024-04-30T15:16:57.635Z,18.70
2024-04-30T15:19:25.592Z,16.27
2024-04-30T15:21:52.979Z,16.85
2024-04-30T15:24:20.303Z,18.25
2024-04-30T15:26:47.588Z,17.10
2024-04-30T15:29:14.985Z,10.32
2024-04-30T15:31:42.507Z,24.20
2024-04-30T15:34:09.939Z,10.18
2024-04-30T15:36:41.588Z,15.00
2024-04-30T15:39:08.850Z,14.82
2024-04-30T15:41:36.162Z,14.00
2024-04-30T15:44:03.445Z,13.68
2024-04-30T15:46:30.756Z,16.88
2024-04-30T15:48:57.995Z,19.55
2024-04-30T15:51:25.233Z,15.07
2024-04-30T15:53:52.514Z,23.10
2024-04-30T15:56:20.240Z,14.57
2024-04-30T15:58:48.468Z,19.58
2024-04-30T16:01:16.285Z,13.15
2024-04-30T16:03:44.612Z,22.88
2024-04-30T16:06:12.383Z,19.23
2024-04-30T16:08:39.715Z,11.80
2024-04-30T16:11:10.784Z,19.63
2024-04-30T16:13:39.923Z,19.52
2024-04-30T16:16:15.798Z,16.73
2024-04-30T16:18:46.713Z,19.05
2024-04-30T16:21:14.777Z,15.13
2024-04-30T16:23:42.684Z,13.82
2024-04-30T16:26:10.334Z,21.00
2024-04-30T16:28:37.672Z,18.42
2024-04-30T16:31:05.083Z,18.88
2024-04-30T16:33:32.701Z,16.75
2024-04-30T16:36:00.255Z,16.85
2024-04-30T16:38:27.593Z,12.95
2024-04-30T16:40:55.834Z,13.93
2024-04-30T16:43:23.097Z,17.30
2024-04-30T16:45:50.983Z,14.73
2024-04-30T16:48:18.639Z,18.65
2024-04-30T16:50:46.045Z,11.35
2024-04-30T16:53:13.303Z,14.75
2024-04-30T16:55:40.599Z,17.23
2024-04-30T16:58:07.857Z,19.17
2024-04-30T17:00:35.267Z,20.77
2024-04-30T17:03:02.814Z,12.02
2024-04-30T17:05:30.193Z,20.33
2024-04-30T17:07:57.589Z,17.85
2024-04-30T17:10:28.430Z,20.05
2024-04-30T17:12:55.875Z,14.07
2024-04-30T17:15:23.268Z,21.77
2024-04-30T17:17:50.619Z,33.95
2024-04-30T17:20:18.085Z,17.00
2024-04-30T17:22:45.446Z,13.93
2024-04-30T17:25:12.774Z,19.83
2024-04-30T17:27:40.119Z,27.63
2024-04-30T17:30:07.682Z,19.15
2024-04-30T17:32:35.071Z,18.42
2024-04-30T17:35:02.413Z,20.73
2024-04-30T17:37:29.682Z,14.85
2024-04-30T17:39:57.039Z,12.18
2024-04-30T17:42:24.638Z,21.60
2024-04-30T17:44:52.077Z,14.13
2024-04-30T17:47:19.476Z,16.05
2024-04-30T17:49:46.820Z,17.08
2024-04-30T17:52:14.066Z,21.63
2024-04-30T17:54:41.372Z,16.80
2024-04-30T17:57:09.798Z,16.15
2024-04-30T17:59:37.219Z,14.93
2024-04-30T18:02:04.572Z,16.50
2024-04-30T18:04:31.905Z,14.90
2024-04-30T18:06:59.359Z,11.23
2024-04-30T18:09:26.677Z,13.60
2024-04-30T18:11:53.997Z,11.60
2024-04-30T18:14:21.321Z,10.77
2024-04-30T18:16:48.758Z,18.40
2024-04-30T18:19:16.631Z,14.80
2024-04-30T18:21:44.532Z,14.20
2024-04-30T18:24:12.028Z,20.42
2024-04-30T18:26:42.542Z,13.98
2024-04-30T18:29:10.120Z,14.48
2024-04-30T18:31:37.819Z,10.15
2024-04-30T18:34:05.290Z,15.60
2024-04-30T18:36:37.474Z,14.40
2024-04-30T18:39:05.434Z,14.43
2024-04-30T18:41:33.003Z,10.82
2024-04-30T18:44:00.591Z,17.17
2024-04-30T18:46:28.104Z,16.17
2024-04-30T18:48:55.955Z,11.40
2024-04-30T18:51:23.755Z,17.27
2024-04-30T18:53:51.168Z,17.88
2024-04-30T18:56:18.915Z,17.13
2024-04-30T18:58:47.059Z,20.45
2024-04-30T19:01:15.278Z,15.63
2024-04-30T19:03:43.040Z,15.48
2024-04-30T19:06:11.099Z,14.73
2024-04-30T19:08:38.667Z,16.30
2024-04-30T19:11:07.387Z,17.67
2024-04-30T19:13:35.110Z,11.65
2024-04-30T19:16:03.063Z,20.13
2024-04-30T19:18:30.772Z,21.35
2024-04-30T19:20:58.386Z,16.08
2024-04-30T19:23:28.740Z,23.02
2024-04-30T19:25:56.096Z,17.95
2024-04-30T19:28:23.528Z,16.27
2024-04-30T19:30:51.148Z,17.42
2024-04-30T19:33:18.836Z,17.90
2024-04-30T19:35:49.606Z,19.17
2024-04-30T19:38:17.813Z,15.00
2024-04-30T19:40:45.544Z,23.63
2024-04-30T19:43:16.423Z,19.42
2024-04-30T19:45:44.194Z,13.90
2024-04-30T19:48:16.820Z,16.17
2024-04-30T19:50:46.969Z,10.38
2024-04-30T19:53:14.404Z,15.70
2024-04-30T19:55:41.725Z,12.98
2024-04-30T19:58:09.696Z,15.15
2024-04-30T20:00:37.233Z,18.42
2024-04-30T20:03:05.263Z,17.50
2024-04-30T20:05:32.573Z,21.30
2024-04-30T20:08:00.438Z,14.55
2024-04-30T20:10:27.825Z,16.17
2024-04-30T20:12:55.359Z,14.05
2024-04-30T20:15:22.818Z,17.90
2024-04-30T20:17:50.243Z,15.05
2024-04-30T20:20:17.598Z,16.02
2024-04-30T20:22:46.031Z,11.20
2024-04-30T20:25:13.702Z,15.55
2024-04-30T20:27:41.019Z,19.63
2024-04-30T20:30:11.204Z,12.60
2024-04-30T20:32:40.223Z,13.93
2024-04-30T20:35:08.231Z,14.55
2024-04-30T20:37:35.500Z,13.13
2024-04-30T20:40:03.383Z,16.35
2024-04-30T20:42:30.823Z,9.00
2024-04-30T20:44:58.126Z,15.23
2024-04-30T20:47:25.774Z,18.25
2024-04-30T20:49:53.318Z,16.10
2024-04-30T20:52:20.694Z,18.33
2024-04-30T20:54:48.122Z,14.57
2024-04-30T20:57:15.483Z,10.73
2024-04-30T20:59:42.798Z,9.90
2024-04-30T21:02:10.536Z,17.23
2024-04-30T21:04:38.095Z,10.77
2024-04-30T21:07:05.553Z,12.10
2024-04-30T21:09:33.026Z,9.10
2024-04-30T21:12:00.404Z,19.25
2024-04-30T21:14:27.739Z,14.32
2024-04-30T21:16:55.023Z,12.98
2024-04-30T21:19:22.559Z,21.90
2024-04-30T21:21:50.315Z,12.00
2024-04-30T21:24:17.666Z,13.40
2024-04-30T21:26:44.947Z,16.52
2024-04-30T21:29:12.212Z,11.45
2024-04-30T21:31:39.542Z,16.27
2024-04-30T21:34:07.710Z,9.15
2024-04-30T21:36:35.618Z,15.38
2024-04-30T21:39:02.969Z,12.40
2024-04-30T21:41:30.299Z,13.20
2024-04-30T21:43:57.565Z,17.73
2024-04-30T21:46:24.815Z,11.05
2024-04-30T21:48:52.168Z,14.65
2024-04-30T21:51:20.183Z,13.90
2024-04-30T21:53:47.580Z,14.90
2024-04-30T21:56:15.967Z,13.18
2024-04-30T21:58:43.224Z,12.20
2024-04-30T22:01:13.055Z,13.18
2024-04-30T22:03:41.280Z,14.70
2024-04-30T22:06:08.693Z,13.00
2024-04-30T22:08:36.144Z,136.88
2024-04-30T22:11:03.482Z,91.85
2024-04-30T22:13:31.031Z,17.25
2024-04-30T22:16:02.655Z,22.30
2024-04-30T22:18:33.538Z,15.95
2024-04-30T22:21:01.334Z,15.45
2024-04-30T22:23:30.848Z,7.90
2024-04-30T22:25:59.273Z,12.38
2024-04-30T22:28:26.689Z,15.93
2024-04-30T22:30:54.111Z,18.25
2024-04-30T22:33:21.653Z,21.40
2024-04-30T22:35:49.035Z,19.20
2024-04-30T22:38:16.561Z,18.77
2024-04-30T22:40:43.814Z,18.52
2024-04-30T22:43:11.124Z,11.05
2024-04-30T22:45:38.899Z,13.93
2024-04-30T22:48:06.685Z,11.60
2024-04-30T22:50:34.118Z,14.50
2024-04-30T22:53:01.377Z,12.23
2024-04-30T22:55:28.671Z,16.33
2024-04-30T22:57:56.007Z,9.77
2024-04-30T23:00:23.356Z,13.52
2024-04-30T23:02:50.830Z,11.63
2024-04-30T23:05:18.214Z,10.07
2024-04-30T23:07:45.489Z,17.83
2024-04-30T23:10:12.820Z,14.68
2024-04-30T23:12:40.157Z,13.32
2024-04-30T23:15:07.472Z,15.32
2024-04-30T23:17:34.871Z,13.73
2024-04-30T23:20:02.215Z,14.07
2024-04-30T23:22:29.484Z,18.33
2024-04-30T23:24:56.850Z,15.13
2024-04-30T23:27:24.215Z,16.52
2024-04-30T23:29:51.514Z,15.50
2024-04-30T23:32:18.821Z,12.98
2024-04-30T23:34:46.183Z,20.38
2024-04-30T23:37:13.478Z,10.95
2024-04-30T23:39:40.862Z,14.80
2024-04-30T23:42:09.087Z,17.88
2024-04-30T23:44:36.563Z,11.40
2024-04-30T23:47:04.143Z,15.45
2024-04-30T23:49:31.628Z,9.32
2024-04-30T23:51:59.052Z,12.43
2024-04-30T23:54:27.266Z,14.63
2024-04-30T23:56:54.773Z,11.18
2024-04-30T23:59:22.749Z,12.88
